Time;durP1;ratioP1;P1;durP2;ratioP2;P2;SDS_P1;SDS_P2;PMS_P1;PMS_P2;Temp;Humidity;BMP_temperature;BMP_pressure;BME280_temperature;BME280_humidity;BME280_pressure;Samples;Min_cycle;Max_cycle;Signal;HPM_P1;HPM_P2
2022/06/05 00:00:32;;;;;;;5.72;5.18;;;17.00;99.10;;;;;;4672599;28;10000554;-72
2022/06/05 00:03:10;;;;;;;9.05;5.63;;;17.00;99.20;;;;;;5019435;28;20040;-72
2022/06/05 00:05:44;;;;;;;7.50;5.95;;;17.00;99.30;;;;;;5022217;28;20580;-72
2022/06/05 00:08:51;;;;;;;7.20;6.03;;;17.00;99.30;;;;;;5021664;28;20112;-72
2022/06/05 00:11:18;;;;;;;9.52;6.63;;;16.90;99.40;;;;;;4976128;28;20047;-72
2022/06/05 00:13:45;;;;;;;8.63;6.45;;;16.90;99.60;;;;;;5008535;28;20336;-72
2022/06/05 00:16:12;;;;;;;9.85;6.10;;;16.90;99.60;;;;;;5012563;28;20030;-72
2022/06/05 00:18:39;;;;;;;8.05;5.93;;;16.80;99.70;;;;;;5014954;28;20658;-72
2022/06/05 00:21:06;;;;;;;6.50;5.90;;;16.80;99.80;;;;;;5013400;28;20120;-72
2022/06/05 00:23:32;;;;;;;7.90;6.70;;;16.80;99.90;;;;;;5008612;28;20034;-72
2022/06/05 00:26:12;;;;;;;7.00;6.05;;;16.80;99.90;;;;;;5019992;28;20104;-72
2022/06/05 00:28:49;;;;;;;9.90;6.28;;;16.70;99.90;;;;;;5015099;28;20079;-73
2022/06/05 00:31:31;;;;;;;7.18;6.22;;;16.70;99.90;;;;;;5013633;28;20032;-72
2022/06/05 00:33:57;;;;;;;7.22;6.47;;;16.60;99.90;;;;;;5026526;28;20121;-72
2022/06/05 00:36:38;;;;;;;7.13;5.88;;;16.60;99.90;;;;;;5021584;28;20433;-72
2022/06/05 00:39:15;;;;;;;7.97;6.30;;;16.60;99.90;;;;;;5023635;28;20443;-72
2022/06/05 00:42:03;;;;;;;7.82;6.50;;;16.60;99.90;;;;;;5011045;28;20732;-72
2022/06/05 00:44:39;;;;;;;6.95;5.88;;;16.60;99.90;;;;;;5018539;28;20037;-72
2022/06/05 00:47:07;;;;;;;6.40;5.80;;;16.50;99.90;;;;;;5012930;28;20033;-72
2022/06/05 00:49:48;;;;;;;6.70;6.13;;;16.60;99.90;;;;;;5021140;28;20017;-72
2022/06/05 00:52:15;;;;;;;6.72;5.60;;;16.60;99.90;;;;;;5023550;28;20052;-72
2022/06/05 00:54:41;;;;;;;6.97;6.28;;;16.50;99.90;;;;;;5018898;28;20026;-72
2022/06/05 00:57:09;;;;;;;6.80;6.20;;;16.50;99.90;;;;;;5020237;28;20362;-72
2022/06/05 00:59:36;;;;;;;7.57;6.30;;;16.50;99.90;;;;;;5022066;28;20091;-72
2022/06/05 01:02:02;;;;;;;8.23;7.18;;;16.40;99.90;;;;;;5013090;28;20041;-72
2022/06/05 01:04:31;;;;;;;9.63;6.45;;;16.40;99.90;;;;;;5022998;28;20026;-72
2022/06/05 01:06:56;;;;;;;9.23;6.43;;;16.40;99.90;;;;;;5019817;28;20032;-72
2022/06/05 01:09:22;;;;;;;9.48;7.10;;;16.30;99.90;;;;;;5019692;28;20026;-72
2022/06/05 01:12:09;;;;;;;9.18;6.80;;;16.30;99.90;;;;;;5016732;28;20029;-72
2022/06/05 01:14:56;;;;;;;7.43;6.72;;;16.30;99.90;;;;;;5014142;28;20472;-72
2022/06/05 01:17:30;;;;;;;8.00;7.20;;;16.20;99.90;;;;;;5023388;28;20526;-72
2022/06/05 01:20:25;;;;;;;8.27;7.40;;;16.20;99.90;;;;;;5018404;28;20030;-72
2022/06/05 01:23:06;;;;;;;10.38;7.63;;;16.20;99.90;;;;;;5015993;28;20024;-72
2022/06/05 01:25:39;;;;;;;8.52;7.25;;;16.10;99.90;;;;;;5014031;28;20095;-72
2022/06/05 01:28:14;;;;;;;9.82;7.40;;;16.10;99.90;;;;;;5017243;28;20036;-72
2022/06/05 01:30:57;;;;;;;9.10;7.97;;;16.10;99.90;;;;;;5013451;28;20665;-72
2022/06/05 01:33:25;;;;;;;9.15;8.25;;;16.00;99.90;;;;;;5023663;28;20053;-72
2022/06/05 01:36:15;;;;;;;10.27;8.23;;;16.00;99.90;;;;;;5012859;28;20037;-72
2022/06/05 01:38:53;;;;;;;11.75;9.05;;;16.00;99.90;;;;;;5019908;28;20029;-72
2022/06/05 01:41:28;;;;;;;10.15;8.32;;;16.00;99.90;;;;;;5024161;28;20061;-72
2022/06/05 01:43:57;;;;;;;10.70;8.57;;;15.90;99.90;;;;;;5019952;28;20531;-72
2022/06/05 01:46:34;;;;;;;9.88;8.77;;;15.90;99.90;;;;;;5021726;28;20038;-72
2022/06/05 01:49:02;;;;;;;9.23;8.25;;;15.90;99.90;;;;;;5021206;28;20033;-72
2022/06/05 01:51:35;;;;;;;8.43;7.55;;;15.80;99.90;;;;;;5022544;28;20036;-72
2022/06/05 01:54:08;;;;;;;9.82;7.82;;;15.90;99.90;;;;;;5019215;28;20593;-72
2022/06/05 01:56:39;;;;;;;10.25;7.65;;;15.80;99.90;;;;;;5011681;28;20309;-72
2022/06/05 01:59:12;;;;;;;8.73;7.78;;;15.80;99.90;;;;;;5019378;28;20034;-72
2022/06/05 02:01:42;;;;;;;8.90;8.00;;;15.70;99.90;;;;;;5017570;28;20563;-72
2022/06/05 02:04:39;;;;;;;10.05;8.82;;;15.70;99.90;;;;;;5018698;28;20481;-72
2022/06/05 02:07:30;;;;;;;14.02;8.65;;;15.70;99.90;;;;;;5005457;28;20110;-72
2022/06/05 02:10:06;;;;;;;8.85;7.45;;;15.70;99.90;;;;;;5023098;28;20036;-72
2022/06/05 02:12:32;;;;;;;10.90;7.35;;;15.80;99.90;;;;;;5025274;28;20053;-72
2022/06/05 02:14:59;;;;;;;8.60;7.70;;;15.80;99.90;;;;;;5027343;28;20456;-72
2022/06/05 02:17:25;;;;;;;7.70;6.90;;;15.70;99.90;;;;;;5021308;28;20039;-72
2022/06/05 02:19:50;;;;;;;7.97;7.18;;;15.70;99.90;;;;;;5025847;28;20033;-72
2022/06/05 02:22:24;;;;;;;9.18;7.32;;;15.70;99.90;;;;;;5024415;28;20029;-72
2022/06/05 02:24:50;;;;;;;10.35;7.25;;;15.70;99.90;;;;;;5020732;28;20394;-72
2022/06/05 02:27:22;;;;;;;7.00;6.15;;;15.60;99.90;;;;;;5013272;28;20034;-72
2022/06/05 02:29:48;;;;;;;14.38;7.10;;;15.60;99.90;;;;;;5016325;28;21066;-72
2022/06/05 02:32:31;;;;;;;9.00;7.07;;;15.60;99.90;;;;;;5027236;28;20123;-72
2022/06/05 02:35:21;;;;;;;7.70;7.00;;;15.60;99.90;;;;;;5020905;28;20475;-72
2022/06/05 02:38:23;;;;;;;8.68;6.40;;;15.60;99.90;;;;;;5022253;28;20031;-72
2022/06/05 02:41:06;;;;;;;7.35;6.22;;;15.60;99.90;;;;;;5024346;28;20048;-72
2022/06/05 02:44:28;;;;;;;;;;;15.50;99.90;;;;;;5025083;28;20018;-72
2022/06/05 02:46:38;;;;;;;5.97;5.47;;;15.60;99.90;;;;;;5022705;28;19909;-72
2022/06/05 02:49:17;;;;;;;8.10;5.80;;;15.60;99.90;;;;;;5020242;28;20053;-72
2022/06/05 02:51:45;;;;;;;6.00;5.40;;;15.50;99.90;;;;;;5022058;28;20433;-72
2022/06/05 02:54:19;;;;;;;5.80;5.30;;;15.40;99.90;;;;;;5024657;28;20026;-72
2022/06/05 02:56:45;;;;;;;7.18;6.18;;;15.40;99.90;;;;;;5016121;28;20547;-73
2022/06/05 02:59:11;;;;;;;6.72;6.10;;;15.40;99.90;;;;;;5017158;28;20021;-72
2022/06/05 03:04:20;;;;;;;7.80;7.00;;;15.30;99.90;;;;;;5017144;28;20656;-72
2022/06/05 03:06:46;;;;;;;10.30;8.65;;;15.20;99.90;;;;;;5024020;28;20052;-71
2022/06/05 03:09:12;;;;;;;8.70;7.90;;;15.20;99.90;;;;;;5023883;28;20056;-72
2022/06/05 03:11:37;;;;;;;10.60;8.43;;;15.20;99.90;;;;;;5021140;28;20378;-72
2022/06/05 03:14:04;;;;;;;10.50;8.60;;;15.10;99.90;;;;;;5021993;28;20082;-71
2022/06/05 03:16:30;;;;;;;10.13;9.13;;;15.10;99.90;;;;;;5016351;28;20077;-71
2022/06/05 03:18:55;;;;;;;12.48;9.77;;;15.10;99.90;;;;;;5023390;28;20562;-71
2022/06/05 03:21:21;;;;;;;10.77;9.65;;;15.10;99.90;;;;;;5024358;28;20029;-71
2022/06/05 03:23:48;;;;;;;13.32;9.98;;;15.10;99.90;;;;;;5025911;28;20391;-71
2022/06/05 03:26:14;;;;;;;14.95;10.38;;;15.00;99.90;;;;;;5017335;28;20034;-71
2022/06/05 03:28:40;;;;;;;11.10;9.98;;;15.00;99.90;;;;;;5019636;28;20026;-71
2022/06/05 03:31:08;;;;;;;11.15;10.05;;;14.90;99.90;;;;;;5021928;28;20029;-71
2022/06/05 03:33:34;;;;;;;13.15;9.95;;;14.90;99.90;;;;;;5027211;28;20103;-71
2022/06/05 03:35:59;;;;;;;12.38;11.07;;;14.90;99.90;;;;;;5014689;28;20036;-71
2022/06/05 03:38:26;;;;;;;18.05;11.93;;;14.90;99.90;;;;;;5019297;28;20018;-71
2022/06/05 03:40:52;;;;;;;11.75;9.85;;;15.00;99.90;;;;;;5024029;28;20409;-71
2022/06/05 03:43:18;;;;;;;15.18;10.55;;;15.00;99.90;;;;;;5021238;28;20056;-71
2022/06/05 03:45:44;;;;;;;12.57;10.13;;;15.10;99.90;;;;;;5019004;28;20489;-72
2022/06/05 03:48:10;;;;;;;12.63;9.32;;;15.10;99.90;;;;;;5019834;28;20040;-71
2022/06/05 03:50:39;;;;;;;10.68;9.25;;;15.20;99.90;;;;;;5023897;28;20038;-71
2022/06/05 03:53:05;;;;;;;10.65;9.45;;;15.30;99.90;;;;;;5021277;28;20037;-71
2022/06/05 03:55:32;;;;;;;11.63;9.80;;;15.40;99.90;;;;;;5015937;28;20430;-71
2022/06/05 03:57:58;;;;;;;15.13;9.52;;;15.50;99.90;;;;;;5018069;28;21042;-71
2022/06/05 04:00:23;;;;;;;10.02;9.02;;;15.60;99.90;;;;;;5021979;28;20080;-71
2022/06/05 04:02:49;;;;;;;10.32;9.27;;;15.60;99.90;;;;;;5015725;28;20034;-71
2022/06/05 04:05:17;;;;;;;9.57;8.57;;;15.60;99.90;;;;;;5018185;28;20397;-72
2022/06/05 04:07:43;;;;;;;11.25;8.77;;;15.70;99.90;;;;;;5024117;28;20025;-72
2022/06/05 04:10:12;;;;;;;10.00;9.00;;;15.90;99.90;;;;;;5023099;28;20040;-72
2022/06/05 04:12:38;;;;;;;12.88;8.88;;;16.50;99.90;;;;;;5010342;28;20030;-72
2022/06/05 04:15:04;;;;;;;10.20;8.52;;;17.50;99.90;;;;;;5019733;28;20550;-72
2022/06/05 04:17:29;;;;;;;11.52;8.77;;;18.50;99.90;;;;;;5015263;28;20037;-71
2022/06/05 04:19:55;;;;;;;8.65;7.70;;;19.50;98.80;;;;;;5011009;28;20705;-72
2022/06/05 04:22:21;;;;;;;10.23;7.65;;;20.30;96.90;;;;;;5018011;28;20021;-72
2022/06/05 04:24:46;;;;;;;8.77;7.93;;;20.50;96.00;;;;;;5024041;28;20112;-73
2022/06/05 04:27:12;;;;;;;9.13;8.25;;;20.00;96.10;;;;;;5022477;28;20049;-72
2022/06/05 04:29:37;;;;;;;9.30;8.15;;;19.30;96.90;;;;;;5020152;28;20030;-72
2022/06/05 04:32:03;;;;;;;9.30;8.10;;;18.70;97.70;;;;;;5023966;28;20033;-72
2022/06/05 04:34:29;;;;;;;11.45;8.45;;;18.20;98.90;;;;;;5018497;28;20053;-72
2022/06/05 04:36:55;;;;;;;9.55;8.35;;;17.80;99.60;;;;;;5019010;28;20037;-72
2022/06/05 04:39:21;;;;;;;9.52;8.07;;;17.50;99.90;;;;;;5018460;28;20033;-72
2022/06/05 04:41:47;;;;;;;11.20;8.45;;;17.40;99.90;;;;;;5023256;28;20041;-72
2022/06/05 04:44:15;;;;;;;10.35;8.68;;;17.20;99.90;;;;;;5026233;28;20405;-72
2022/06/05 04:46:40;;;;;;;10.02;8.38;;;17.00;99.90;;;;;;5023021;28;20544;-71
2022/06/05 04:49:06;;;;;;;9.38;8.40;;;16.90;99.90;;;;;;5014184;28;20033;-72
2022/06/05 04:51:34;;;;;;;9.10;8.20;;;16.80;99.90;;;;;;5015230;28;20433;-72
2022/06/05 04:54:01;;;;;;;9.55;8.18;;;16.70;99.90;;;;;;5022449;28;20481;-71
2022/06/05 04:56:28;;;;;;;9.75;7.82;;;16.70;99.90;;;;;;5008550;28;20037;-72
2022/06/05 04:58:54;;;;;;;8.05;7.25;;;16.70;99.90;;;;;;5011037;28;20521;-72
2022/06/05 05:01:21;;;;;;;9.20;7.60;;;16.70;99.90;;;;;;5026220;28;20051;-72
2022/06/05 05:03:50;;;;;;;9.43;7.03;;;16.80;99.90;;;;;;5020034;28;20247;-72
2022/06/05 05:06:16;;;;;;;8.77;7.13;;;16.80;99.90;;;;;;5023171;28;20069;-72
2022/06/05 05:08:41;;;;;;;8.45;7.65;;;16.80;99.90;;;;;;5023233;28;20041;-72
2022/06/05 05:11:07;;;;;;;8.15;7.25;;;16.90;99.90;;;;;;5022762;28;20025;-72
2022/06/05 05:13:33;;;;;;;7.85;7.05;;;17.00;99.90;;;;;;5018695;28;20555;-72
2022/06/05 05:15:58;;;;;;;9.30;7.43;;;17.00;99.90;;;;;;5021741;28;20029;-72
2022/06/05 05:18:25;;;;;;;10.45;7.97;;;17.10;99.90;;;;;;5018068;28;20108;-72
2022/06/05 05:20:51;;;;;;;8.35;7.55;;;17.20;99.90;;;;;;5016211;28;20599;-72
2022/06/05 05:23:18;;;;;;;8.32;7.43;;;17.30;99.90;;;;;;5021357;28;20021;-72
2022/06/05 05:25:46;;;;;;;8.80;6.80;;;17.40;99.90;;;;;;5012964;28;20026;-72
2022/06/05 05:28:11;;;;;;;7.78;6.82;;;17.50;99.90;;;;;;5015611;28;20028;-73
2022/06/05 05:30:37;;;;;;;7.82;6.85;;;17.70;99.90;;;;;;5018773;28;20033;-72
2022/06/05 05:33:03;;;;;;;10.80;7.28;;;17.80;99.90;;;;;;5026402;28;20071;-72
2022/06/05 05:35:28;;;;;;;8.82;7.38;;;18.00;99.90;;;;;;5019950;28;20535;-72
2022/06/05 05:37:54;;;;;;;7.90;7.20;;;18.10;99.90;;;;;;5023183;28;20116;-73
2022/06/05 05:43:04;;;;;;;8.38;7.55;;;18.40;99.90;;;;;;5014437;28;20032;-73
2022/06/05 05:45:29;;;;;;;9.30;7.50;;;18.50;99.90;;;;;;5023513;28;20524;-72
2022/06/05 05:47:55;;;;;;;10.00;7.65;;;18.60;99.90;;;;;;5027730;28;20040;-72
2022/06/05 05:50:21;;;;;;;11.88;8.18;;;18.60;99.90;;;;;;5019725;28;20158;-72
2022/06/05 05:52:46;;;;;;;8.90;7.88;;;18.60;99.90;;;;;;5027407;28;20521;-72
2022/06/05 05:55:18;;;;;;;11.38;8.35;;;18.60;99.90;;;;;;4314436;28;10001217;-72
2022/06/05 05:57:45;;;;;;;9.23;8.32;;;18.60;99.90;;;;;;4968587;28;20035;-72
2022/06/05 06:00:13;;;;;;;9.68;8.68;;;18.60;99.90;;;;;;4969545;28;20027;-71
2022/06/05 06:02:39;;;;;;;10.27;9.13;;;18.60;99.90;;;;;;4968829;28;20041;-71
2022/06/05 06:05:06;;;;;;;9.85;8.63;;;18.60;99.90;;;;;;4968526;28;20304;-71
2022/06/05 06:07:32;;;;;;;9.60;8.60;;;18.60;99.90;;;;;;4964534;28;20027;-72
2022/06/05 06:09:58;;;;;;;9.82;8.82;;;18.70;99.90;;;;;;4970914;28;20105;-72
2022/06/05 06:12:24;;;;;;;13.60;8.57;;;18.70;99.90;;;;;;4968834;28;20047;-73
2022/06/05 06:14:50;;;;;;;8.57;7.63;;;18.90;99.90;;;;;;4968098;28;20092;-72
2022/06/05 06:17:16;;;;;;;8.10;7.30;;;19.00;99.90;;;;;;4975747;28;20138;-73
2022/06/05 06:19:41;;;;;;;10.40;7.97;;;19.10;99.90;;;;;;4974241;28;20030;-72
2022/06/05 06:22:07;;;;;;;10.60;7.75;;;19.30;99.90;;;;;;4966729;28;20042;-71
2022/06/05 06:24:33;;;;;;;9.80;8.30;;;19.40;99.90;;;;;;4973222;28;20030;-72
2022/06/05 06:26:59;;;;;;;9.27;8.30;;;19.50;99.90;;;;;;4974676;28;20705;-71
2022/06/05 06:29:24;;;;;;;8.40;7.60;;;19.60;99.90;;;;;;5021555;28;20112;-72
2022/06/05 06:31:50;;;;;;;8.40;7.65;;;19.60;99.90;;;;;;5014738;28;20112;-72
2022/06/05 06:34:16;;;;;;;12.15;9.07;;;19.70;99.90;;;;;;5024004;28;20132;-72
2022/06/05 06:36:41;;;;;;;8.18;7.38;;;19.60;99.90;;;;;;5021199;28;20029;-73
2022/06/05 06:39:07;;;;;;;8.85;7.65;;;19.50;99.90;;;;;;5012845;28;20032;-72
2022/06/05 06:41:33;;;;;;;9.10;7.75;;;19.50;99.90;;;;;;5017426;28;20037;-71
2022/06/05 06:43:58;;;;;;;9.35;7.90;;;19.60;99.90;;;;;;5019475;28;20396;-73
2022/06/05 06:46:24;;;;;;;9.90;9.00;;;19.70;99.90;;;;;;5017278;28;20075;-74
2022/06/05 06:48:51;;;;;;;8.20;7.40;;;19.80;99.90;;;;;;5018525;28;20523;-72
2022/06/05 06:51:17;;;;;;;10.35;9.45;;;19.80;99.90;;;;;;5014662;28;20038;-73
2022/06/05 06:53:43;;;;;;;9.75;8.85;;;19.90;99.90;;;;;;5016988;28;20754;-73
2022/06/05 06:56:12;;;;;;;9.93;8.93;;;19.90;99.90;;;;;;5018126;28;20650;-73
2022/06/05 06:58:42;;;;;;;11.68;9.18;;;19.90;99.90;;;;;;5015265;28;20091;-72
2022/06/05 07:01:09;;;;;;;9.88;8.88;;;19.90;99.90;;;;;;5009535;28;20728;-73
2022/06/05 07:03:36;;;;;;;9.60;8.70;;;19.90;99.90;;;;;;5016329;28;20041;-73
2022/06/05 07:06:04;;;;;;;12.80;9.55;;;19.80;99.90;;;;;;5008568;28;20054;-73
2022/06/05 07:08:30;;;;;;;10.32;9.30;;;19.80;99.90;;;;;;5016090;28;20426;-72
2022/06/05 07:10:56;;;;;;;10.07;9.07;;;19.90;99.90;;;;;;5024426;28;20116;-72
2022/06/05 07:13:21;;;;;;;9.70;8.80;;;19.90;99.90;;;;;;5024081;28;20095;-73
2022/06/05 07:15:47;;;;;;;9.55;8.55;;;20.00;99.90;;;;;;5019236;28;20113;-73
2022/06/05 07:18:12;;;;;;;11.18;8.90;;;20.20;99.90;;;;;;5010816;28;20037;-73
2022/06/05 07:20:40;;;;;;;8.85;8.05;;;20.40;99.90;;;;;;5021042;28;20029;-73
2022/06/05 07:23:08;;;;;;;10.52;8.82;;;20.60;99.90;;;;;;5022516;28;20088;-73
2022/06/05 07:25:35;;;;;;;9.57;8.65;;;20.70;99.90;;;;;;5018884;28;20675;-72
2022/06/05 07:28:02;;;;;;;12.68;8.80;;;20.80;99.90;;;;;;5017021;28;20033;-73
2022/06/05 07:30:28;;;;;;;10.85;8.57;;;20.80;99.90;;;;;;5012685;28;20037;-73
2022/06/05 07:32:54;;;;;;;9.52;8.20;;;20.80;99.90;;;;;;5015879;28;20053;-72
2022/06/05 07:35:20;;;;;;;9.88;8.68;;;20.90;99.90;;;;;;5023930;28;20484;-73
2022/06/05 07:37:46;;;;;;;9.45;8.48;;;20.80;99.90;;;;;;5013586;28;20017;-71
2022/06/05 07:40:12;;;;;;;9.93;8.60;;;20.80;99.90;;;;;;5018431;28;20043;-72
2022/06/05 07:42:40;;;;;;;10.25;8.57;;;20.80;99.90;;;;;;5015915;28;20840;-71
2022/06/05 07:45:07;;;;;;;9.55;8.57;;;20.80;99.90;;;;;;5015139;28;20029;-73
2022/06/05 07:47:33;;;;;;;9.65;8.68;;;20.90;99.90;;;;;;5019858;28;20087;-84
2022/06/05 07:49:59;;;;;;;9.23;8.32;;;20.90;99.90;;;;;;5023787;28;20025;-83
2022/06/05 07:55:11;;;;;;;9.65;8.38;;;21.10;99.90;;;;;;4973849;28;20112;-84
2022/06/05 07:57:37;;;;;;;8.38;7.57;;;21.20;99.70;;;;;;5006265;28;20040;-84
2022/06/05 08:00:07;;;;;;;9.15;7.50;;;21.40;99.90;;;;;;5016878;28;20037;-84
2022/06/05 08:02:33;;;;;;;7.20;6.50;;;21.60;99.10;;;;;;5010644;28;20076;-85
2022/06/05 08:04:58;;;;;;;7.40;6.72;;;21.80;99.20;;;;;;5024373;28;20030;-85
2022/06/05 08:07:26;;;;;;;7.63;6.63;;;22.00;98.80;;;;;;5018421;28;20026;-83
2022/06/05 08:09:52;;;;;;;8.07;6.75;;;22.30;97.40;;;;;;5006386;28;20037;-83
2022/06/05 08:12:20;;;;;;;7.70;7.00;;;22.50;97.10;;;;;;5022523;28;20416;-84
2022/06/05 08:14:49;;;;;;;7.55;6.18;;;22.80;96.80;;;;;;5024780;28;20029;-84
2022/06/05 08:17:19;;;;;;;7.82;5.53;;;23.20;96.50;;;;;;5018910;28;20536;-85
2022/06/05 08:19:46;;;;;;;6.50;5.85;;;23.70;95.50;;;;;;5012208;28;20445;-83
2022/06/05 08:22:13;;;;;;;6.70;5.72;;;24.00;94.60;;;;;;5021568;28;20052;-85
2022/06/05 08:24:39;;;;;;;6.28;5.68;;;24.30;93.90;;;;;;5005822;28;20486;-85
2022/06/05 08:27:07;;;;;;;7.20;6.07;;;24.50;93.80;;;;;;5016571;28;20040;-82
2022/06/05 08:29:33;;;;;;;6.82;5.57;;;24.70;94.10;;;;;;5002100;28;20022;-83
2022/06/05 08:31:58;;;;;;;6.30;5.70;;;24.70;92.80;;;;;;5022753;28;20040;-83
2022/06/05 08:34:24;;;;;;;10.27;5.70;;;24.70;91.90;;;;;;5007090;28;20418;-82
2022/06/05 08:41:26;;;;;;;6.03;5.32;;;24.90;91.90;;;;;;5016993;28;20240;-82
2022/06/05 08:43:00;;;;;;;5.68;4.90;;;24.60;91.20;;;;;;5004804;28;20061;-83
2022/06/05 08:45:38;;;;;;;5.80;5.20;;;24.40;90.90;;;;;;5021278;28;20029;-81
2022/06/05 08:48:10;;;;;;;7.68;5.25;;;24.10;91.20;;;;;;5021396;28;20429;-82
2022/06/05 08:50:48;;;;;;;7.40;5.00;;;23.80;91.80;;;;;;5014706;28;20461;-82
2022/06/05 08:53:46;;;;;;;6.40;5.57;;;23.70;92.80;;;;;;5019971;28;20030;-82
2022/06/05 08:56:19;;;;;;;9.00;5.60;;;23.40;92.70;;;;;;5008215;28;20045;-82
2022/06/05 08:58:58;;;;;;;;;;;23.00;94.70;;;;;;5015887;28;20034;-82
2022/06/05 09:01:41;;;;;;;6.07;5.40;;;22.70;94.60;;;;;;5005658;28;20146;-83
2022/06/05 09:04:34;;;;;;;6.37;5.77;;;22.50;95.20;;;;;;5009731;28;20037;-82
2022/06/05 09:07:04;;;;;;;6.07;5.53;;;22.50;95.50;;;;;;5015656;28;20433;-82
2022/06/05 09:09:47;;;;;;;6.28;5.68;;;22.40;96.30;;;;;;5006999;28;20056;-82
2022/06/05 09:12:18;;;;;;;5.78;5.28;;;22.30;96.40;;;;;;5012769;28;20037;-83
2022/06/05 09:14:52;;;;;;;6.75;5.20;;;22.20;95.90;;;;;;5006538;28;20037;-82
2022/06/05 09:17:20;;;;;;;6.60;6.00;;;22.10;96.50;;;;;;5010371;28;20041;-82
2022/06/05 09:19:49;;;;;;;6.75;5.75;;;22.10;97.00;;;;;;5009712;28;20058;-82
2022/06/05 09:22:22;;;;;;;8.20;5.53;;;22.10;97.50;;;;;;5025093;28;20037;-82
2022/06/05 09:25:21;;;;;;;6.07;5.55;;;22.10;97.90;;;;;;5024177;28;20140;-82
2022/06/05 09:27:56;;;;;;;5.70;5.03;;;22.10;98.40;;;;;;5019307;28;20515;-82
2022/06/05 09:30:40;;;;;;;6.20;4.85;;;22.10;97.70;;;;;;5015841;28;20021;-82
2022/06/05 09:33:14;;;;;;;5.55;5.15;;;22.20;98.00;;;;;;5021459;28;20083;-82
2022/06/05 09:35:57;;;;;;;5.32;4.80;;;22.20;97.50;;;;;;5014133;28;20070;-82
2022/06/05 09:38:42;;;;;;;5.72;5.07;;;22.30;98.20;;;;;;5011328;28;20055;-81
2022/06/05 09:41:10;;;;;;;5.75;5.25;;;22.30;98.70;;;;;;5018893;28;20054;-81
2022/06/05 09:43:52;;;;;;;6.57;5.80;;;22.40;98.00;;;;;;5019865;28;20140;-81
2022/06/05 09:46:56;;;;;;;5.75;5.25;;;22.30;98.50;;;;;;5019454;28;20442;-81
2022/06/05 09:49:33;;;;;;;;;;;22.30;99.70;;;;;;5022186;28;20025;-81
2022/06/05 09:52:10;;;;;;;6.38;5.47;;;22.30;98.50;;;;;;5025727;28;19913;-81
2022/06/05 09:54:43;;;;;;;6.30;5.47;;;22.20;99.00;;;;;;5007065;28;20034;-83
2022/06/05 10:00:29;;;;;;;6.28;5.65;;;22.20;99.50;;;;;;5009069;28;20044;-81
2022/06/05 10:03:02;;;;;;;6.20;5.60;;;22.10;99.90;;;;;;5020301;28;20025;-81
2022/06/05 10:05:31;;;;;;;5.60;5.10;;;22.00;99.60;;;;;;5016688;28;20025;-82
2022/06/05 10:08:22;;;;;;;5.55;5.10;;;22.00;99.70;;;;;;5023371;28;20033;-82
2022/06/05 10:10:51;;;;;;;5.93;5.38;;;22.00;99.90;;;;;;5015570;28;20041;-82
2022/06/05 10:13:45;;;;;;;6.07;5.47;;;21.90;99.90;;;;;;5027753;28;20095;-82
2022/06/05 10:16:21;;;;;;;6.35;5.75;;;21.90;99.90;;;;;;5015663;28;20037;-82
2022/06/05 10:19:05;;;;;;;6.35;5.78;;;21.90;99.90;;;;;;5023742;28;20025;-82
2022/06/05 10:21:40;;;;;;;6.43;5.82;;;21.90;99.70;;;;;;5020181;28;20041;-82
2022/06/05 10:24:31;;;;;;;6.40;5.80;;;21.90;99.90;;;;;;5007832;28;20051;-75
2022/06/05 10:26:59;;;;;;;6.68;5.55;;;21.90;99.90;;;;;;5014445;28;20069;-75
2022/06/05 10:29:44;;;;;;;6.38;5.88;;;21.80;99.90;;;;;;5014295;28;20025;-75
2022/06/05 10:32:43;;;;;;;7.03;6.43;;;21.70;99.90;;;;;;5022635;28;20501;-75
2022/06/05 10:35:21;;;;;;;6.70;6.20;;;21.70;99.90;;;;;;5018192;28;20107;-75
2022/06/05 10:37:53;;;;;;;6.43;5.82;;;21.70;99.90;;;;;;5023752;28;20056;-75
2022/06/05 10:40:39;;;;;;;6.57;5.97;;;21.70;99.90;;;;;;5023631;28;20037;-75
2022/06/05 10:43:22;;;;;;;7.32;6.63;;;21.80;99.90;;;;;;5024350;28;20045;-75
2022/06/05 10:45:49;;;;;;;7.00;6.28;;;21.80;99.90;;;;;;5019924;28;20034;-75
2022/06/05 10:48:47;;;;;;;6.88;6.18;;;21.90;99.90;;;;;;5023721;28;20411;-75
2022/06/05 10:51:27;;;;;;;6.97;6.38;;;21.90;99.90;;;;;;5012952;28;20481;-74
2022/06/05 10:54:14;;;;;;;6.93;6.20;;;22.00;99.90;;;;;;5013401;28;20441;-75
2022/06/05 10:57:32;;;;;;;7.18;6.43;;;22.00;99.90;;;;;;5019430;28;20588;-77
2022/06/05 11:00:18;;;;;;;7.18;6.57;;;22.00;99.90;;;;;;4989572;28;20247;-77
2022/06/05 11:03:21;;;;;;;6.72;6.20;;;22.00;99.90;;;;;;5020412;28;20031;-76
2022/06/05 11:06:21;;;;;;;6.90;6.30;;;22.00;99.90;;;;;;5022721;28;20053;-76
2022/06/05 11:09:02;;;;;;;7.07;6.47;;;22.00;99.90;;;;;;5008231;28;20578;-75
2022/06/05 11:14:40;;;;;;;7.53;6.80;;;22.00;99.90;;;;;;5020054;28;20099;-76
2022/06/05 11:17:41;;;;;;;7.00;6.40;;;22.10;99.90;;;;;;5017080;28;20040;-76
2022/06/05 11:20:21;;;;;;;7.65;6.95;;;22.10;99.90;;;;;;5011281;28;21109;-75
2022/06/05 11:23:00;;;;;;;7.20;6.50;;;22.20;99.90;;;;;;5012829;28;20037;-75
2022/06/05 11:25:31;;;;;;;8.43;7.45;;;22.20;99.90;;;;;;5006254;28;20099;-75
2022/06/05 11:28:21;;;;;;;8.32;7.57;;;22.30;99.90;;;;;;5021396;28;20030;-75
2022/06/05 11:31:02;;;;;;;8.88;8.07;;;22.30;99.90;;;;;;5013122;28;20025;-75
2022/06/05 11:33:31;;;;;;;8.30;7.60;;;22.30;99.90;;;;;;5015418;28;20056;-75
2022/06/05 11:36:32;;;;;;;9.15;7.63;;;22.20;99.90;;;;;;5022376;28;20030;-75
2022/06/05 11:39:24;;;;;;;8.77;7.32;;;22.20;99.90;;;;;;5020490;28;20080;-75
2022/06/05 11:42:02;;;;;;;8.63;7.93;;;22.00;99.90;;;;;;5020576;28;20131;-75
2022/06/05 11:44:55;;;;;;;9.00;8.20;;;22.00;99.90;;;;;;5023867;28;20508;-75
2022/06/05 11:47:54;;;;;;;8.70;7.90;;;21.80;99.90;;;;;;5018409;28;20042;-75
2022/06/05 11:50:33;;;;;;;9.10;8.27;;;21.70;99.90;;;;;;5003239;28;20038;-75
2022/06/05 11:53:11;;;;;;;9.40;8.50;;;21.70;99.90;;;;;;5013521;28;20029;-75
2022/06/05 11:55:45;;;;;;;12.40;8.50;;;21.60;99.90;;;;;;5012711;28;20041;-75
2022/06/05 11:58:22;;;;;;;9.15;8.40;;;21.60;99.90;;;;;;5006514;28;20096;-74
2022/06/05 12:00:56;;;;;;;10.27;9.48;;;21.60;99.90;;;;;;5011871;28;20041;-74
2022/06/05 12:03:34;;;;;;;9.48;8.68;;;21.60;99.90;;;;;;5011408;28;20026;-74
2022/06/05 12:06:10;;;;;;;9.82;8.77;;;21.60;99.90;;;;;;5016818;28;20567;-74
2022/06/05 12:08:48;;;;;;;10.52;9.43;;;21.70;99.90;;;;;;5013146;28;20121;-74
2022/06/05 12:11:26;;;;;;;10.85;9.48;;;21.70;99.90;;;;;;5018934;28;20033;-75
2022/06/05 12:14:07;;;;;;;10.52;9.65;;;21.70;99.90;;;;;;5018714;28;20029;-75
2022/06/05 12:16:50;;;;;;;11.23;10.23;;;21.80;99.90;;;;;;5023080;28;20534;-74
2022/06/05 12:19:43;;;;;;;11.68;10.02;;;21.80;99.90;;;;;;5002618;28;20029;-74
2022/06/05 12:22:32;;;;;;;12.35;10.25;;;21.90;99.90;;;;;;5004885;28;20037;-74
2022/06/05 12:25:03;;;;;;;11.68;10.52;;;21.90;99.90;;;;;;5016242;28;20621;-74
2022/06/05 12:27:45;;;;;;;11.13;10.02;;;22.00;99.90;;;;;;5023768;28;20035;-74
2022/06/05 12:30:20;;;;;;;11.63;10.43;;;22.00;99.90;;;;;;5012286;28;20083;-74
2022/06/05 12:33:08;;;;;;;11.73;10.57;;;22.20;99.90;;;;;;5011350;28;20124;-75
2022/06/05 12:35:39;;;;;;;11.73;10.43;;;22.10;99.90;;;;;;5022371;28;20067;-74
2022/06/05 12:38:31;;;;;;;11.88;10.50;;;;;;;;;;5019464;28;20177;-74
2022/06/05 12:41:07;;;;;;;10.77;9.77;;;22.30;99.90;;;;;;5004627;28;20030;-75
2022/06/05 12:43:56;;;;;;;11.13;10.05;;;22.30;99.90;;;;;;5023486;28;20025;-82
2022/06/05 12:46:30;;;;;;;11.80;10.63;;;22.40;99.90;;;;;;5015700;28;20853;-78
2022/06/05 12:49:14;;;;;;;11.80;10.63;;;22.50;99.90;;;;;;5013734;28;20627;-78
2022/06/05 12:51:47;;;;;;;10.57;9.57;;;22.50;99.90;;;;;;5012178;28;20135;-77
2022/06/05 12:54:26;;;;;;;11.23;10.10;;;22.50;99.90;;;;;;5018998;28;20037;-78
2022/06/05 12:56:57;;;;;;;11.50;9.73;;;22.60;99.90;;;;;;5012974;28;20135;-80
2022/06/05 12:59:54;;;;;;;11.20;10.20;;;22.60;99.90;;;;;;5016282;28;20107;-77
2022/06/05 13:02:36;;;;;;;10.90;9.90;;;22.80;99.90;;;;;;5004984;28;20060;-77
2022/06/05 13:05:30;;;;;;;10.10;9.10;;;23.00;99.90;;;;;;5006933;28;20056;-79
2022/06/05 13:08:26;;;;;;;9.40;8.60;;;23.00;99.90;;;;;;5018532;28;20121;-78
2022/06/05 13:11:30;;;;;;;10.35;9.32;;;23.10;99.90;;;;;;5014722;28;20103;-80
2022/06/05 13:14:19;;;;;;;9.15;8.35;;;23.00;99.90;;;;;;5009137;28;20382;-79
2022/06/05 13:16:56;;;;;;;10.32;8.73;;;23.00;99.90;;;;;;4987048;28;20501;-77
2022/06/05 13:19:40;;;;;;;9.95;9.05;;;23.00;99.90;;;;;;5013996;28;20033;-78
2022/06/05 13:22:37;;;;;;;9.60;8.70;;;22.90;99.90;;;;;;5019376;28;20428;-79
2022/06/05 13:25:22;;;;;;;9.77;8.75;;;23.00;99.90;;;;;;5016829;28;20034;-77
2022/06/05 13:28:00;;;;;;;9.65;8.73;;;23.00;99.90;;;;;;5012677;28;20026;-79
2022/06/05 13:30:30;;;;;;;9.50;8.70;;;23.00;99.90;;;;;;5019507;28;20683;-80
2022/06/05 13:33:11;;;;;;;10.50;8.40;;;22.90;99.90;;;;;;5007937;28;20053;-77